Maersk Gateshead — OWNT2 — position and weather

sailwx.info

Track history (hours):
 
Tides and Currents Weather Stations Pressure Air Temp Water Temp Dewpoint Dewpoint Depression Visibility Wind Speed Wind Dir Waves Ship Positions

Maersk Gateshead

Last reported at 2018-Feb-24 17:14 UTC. Time now 2018-Feb-24 18:03 UTC.
Position N 34°12' W 077°57'.

Length 292 m; draft 10.6 m.

Type: Ship (hazmat cat A). MMSI: 219587000.

Date/timePositionNaut miles runAvg speedWind from/ knotsBaromVisibWave heightAir tempDewpointWater temp
2018-Feb-24 17:14N 34°12' W 077°57'0 0.0
2018-Feb-24 16:59N 34°12' W 077°57'0 0.0
2018-Feb-24 14:34N 34°12' W 077°57'0 0.0
2018-Feb-24 12:54N 34°12' W 077°57'1 2.8
2018-Feb-24 12:29N 34°13' W 077°57'1 2.5
2018-Feb-24 11:58N 34°11' W 077°57'182 3.6
2018-Feb-22 09:10N 31°56' W 080°24'2 9.6
2018-Feb-22 09:00N 31°56' W 080°25'5 9.6
2018-Feb-22 08:30N 31°56' W 080°31'5 9.6
2018-Feb-22 08:00N 31°55' W 080°37'5 8.9
2018-Feb-22 07:26N 31°58' W 080°42'511.9
2018-Feb-22 07:01N 31°60' W 080°47'712.7
2018-Feb-22 06:29N 32°02' W 080°55'613.0
2018-Feb-22 06:01N 32°06' W 081°00'4 7.6
2018-Feb-22 05:30N 32°05' W 081°05'3 5.1
2018-Feb-22 05:00N 32°06' W 081°07'2 4.2
2018-Feb-22 04:30N 32°08' W 081°08'0 0.2
2018-Feb-22 03:43N 32°08' W 081°09'0 0.0
2018-Feb-22 03:25N 32°08' W 081°09'0 0.0
2018-Feb-22 02:55N 32°08' W 081°09'0 0.0
2018-Feb-22 02:25N 32°08' W 081°09'0 0.0
2018-Feb-22 01:55N 32°08' W 081°09'0 0.0
2018-Feb-22 01:25N 32°08' W 081°09'0 0.0
2018-Feb-22 00:55N 32°08' W 081°09'0 0.0
2018-Feb-22 00:25N 32°08' W 081°09'0 0.0
2018-Feb-21 23:43N 32°08' W 081°09'0 0.0
2018-Feb-21 23:25N 32°08' W 081°09'0 0.0
2018-Feb-21 22:55N 32°08' W 081°09'0 0.0
2018-Feb-21 22:25N 32°08' W 081°09'0 0.0
2018-Feb-21 21:55N 32°08' W 081°09'0 0.0
2018-Feb-21 21:19N 32°08' W 081°09'0 0.0
2018-Feb-21 20:55N 32°08' W 081°09'0 0.0
2018-Feb-21 20:25N 32°08' W 081°09'0 0.0
2018-Feb-21 19:37N 32°08' W 081°09'0 0.0
2018-Feb-21 19:25N 32°08' W 081°09'0 0.0
2018-Feb-21 18:55N 32°08' W 081°09'0 0.0
2018-Feb-21 18:25N 32°08' W 081°09'0 0.0
2018-Feb-21 17:55N 32°08' W 081°09'0 0.0
2018-Feb-21 17:25N 32°08' W 081°09'0 0.0
2018-Feb-21 16:55N 32°08' W 081°09'0 0.0
2018-Feb-21 16:25N 32°08' W 081°09'0 0.0
2018-Feb-21 15:55N 32°08' W 081°09'0 0.0
2018-Feb-21 15:25N 32°08' W 081°09'0 0.0
2018-Feb-21 14:49N 32°08' W 081°09'0 0.0
2018-Feb-21 14:25N 32°08' W 081°09'0 0.0
2018-Feb-21 13:37N 32°08' W 081°09'0 0.0
2018-Feb-21 13:25N 32°08' W 081°09'0 0.0
2018-Feb-21 12:55N 32°08' W 081°09'0 0.0
2018-Feb-21 12:25N 32°08' W 081°09'0 0.0
2018-Feb-21 11:55N 32°08' W 081°09'0 0.0
2018-Feb-21 11:13N 32°08' W 081°09'0 0.0
2018-Feb-21 10:55N 32°08' W 081°09'0 0.0
2018-Feb-21 10:25N 32°08' W 081°09'0 0.0
2018-Feb-21 09:55N 32°08' W 081°09'0 0.0
2018-Feb-21 09:13N 32°08' W 081°09'0 0.0
2018-Feb-21 08:55N 32°08' W 081°09'0 0.0
2018-Feb-21 08:25N 32°08' W 081°09'0 0.0
2018-Feb-21 07:55N 32°08' W 081°09'0 0.0
2018-Feb-21 07:25N 32°08' W 081°09'0 0.0
2018-Feb-21 06:55N 32°08' W 081°09'0 0.0
2018-Feb-21 06:25N 32°08' W 081°09'0 0.0
2018-Feb-21 05:55N 32°08' W 081°09'0 0.0
2018-Feb-21 05:25N 32°08' W 081°09'0 0.0
2018-Feb-21 04:55N 32°08' W 081°09'0 0.0
2018-Feb-21 04:25N 32°08' W 081°09'0 0.0
2018-Feb-21 03:55N 32°08' W 081°09'0 0.1
2018-Feb-21 03:30N 32°08' W 081°09'1 2.8
2018-Feb-21 03:00N 32°07' W 081°08'4 6.6
2018-Feb-21 02:28N 32°05' W 081°04'4 8.5
2018-Feb-21 02:01N 32°06' W 080°60'611.5
2018-Feb-21 01:30N 32°02' W 080°55'612.1
2018-Feb-21 01:00N 32°01' W 080°48'510.8
2018-Feb-21 00:30N 31°57' W 080°43'4 7.3
2018-Feb-21 00:00N 31°56' W 080°39'2 1.1
2018-Feb-20 21:47N 31°58' W 080°38'0 0.3
2018-Feb-20 21:23N 31°58' W 080°38'0 0.2
2018-Feb-20 20:47N 31°58' W 080°38'0 0.0
2018-Feb-20 20:23N 31°58' W 080°38'0 0.0
2018-Feb-20 19:59N 31°58' W 080°38'0 0.0
2018-Feb-20 19:29N 31°58' W 080°38'0 0.1
2018-Feb-20 18:59N 31°58' W 080°38'0 0.1
2018-Feb-20 18:29N 31°58' W 080°38'0 0.1
2018-Feb-20 17:59N 31°58' W 080°38'0 0.1
2018-Feb-20 17:29N 31°58' W 080°38'0 0.0
2018-Feb-20 14:23N 31°58' W 080°38'0 0.0
2018-Feb-20 11:41N 31°58' W 080°38'0 0.1
2018-Feb-20 11:29N 31°58' W 080°38'0 0.0
2018-Feb-20 10:59N 31°58' W 080°38'0 0.0
2018-Feb-20 10:29N 31°58' W 080°38'0 0.0
2018-Feb-20 09:59N 31°58' W 080°38'0 0.2
2018-Feb-20 09:29N 31°58' W 080°38'0 0.3
2018-Feb-20 08:59N 31°58' W 080°38'0 0.1
2018-Feb-20 08:29N 31°58' W 080°38'0 0.0
2018-Feb-20 07:53N 31°58' W 080°38'0 0.0
2018-Feb-20 07:29N 31°58' W 080°38'0 0.0
2018-Feb-20 06:59N 31°58' W 080°38'0 0.1
2018-Feb-20 06:29N 31°58' W 080°38'0 0.1
2018-Feb-20 05:53N 31°58' W 080°38'0 0.1
2018-Feb-20 05:29N 31°58' W 080°38'0 0.1
2018-Feb-20 04:59N 31°58' W 080°38'0 0.0
2018-Feb-20 02:41N 31°58' W 080°38'0 0.0
2018-Feb-20 02:23N 31°58' W 080°38'0 0.0
2018-Feb-20 01:59N 31°58' W 080°38'0 0.0
2018-Feb-20 01:29N 31°58' W 080°38'0 0.0
2018-Feb-20 00:59N 31°58' W 080°38'0 0.0
2018-Feb-20 00:29N 31°58' W 080°38'0 0.0
2018-Feb-19 23:59N 31°58' W 080°38'0 0.0
2018-Feb-19 23:29N 31°58' W 080°38'0 0.0
2018-Feb-19 22:59N 31°58' W 080°38'0 0.0
2018-Feb-19 22:29N 31°58' W 080°38'0 0.1
2018-Feb-19 20:35N 31°58' W 080°38'0 0.2
2018-Feb-19 20:29N 31°58' W 080°38'0 0.0
2018-Feb-19 19:35N 31°58' W 080°38'0 0.1
2018-Feb-19 19:29N 31°58' W 080°38'0 0.0
2018-Feb-19 18:59N 31°58' W 080°38'0 0.0
2018-Feb-19 18:29N 31°58' W 080°38'0 0.0
2018-Feb-19 12:59N 31°58' W 080°38'0 0.0
2018-Feb-19 12:29N 31°58' W 080°38'0 0.0
2018-Feb-19 11:23N 31°58' W 080°38'0 0.3
2018-Feb-19 10:58N 31°58' W 080°38'1 1.9
2018-Feb-19 10:30N 31°57' W 080°38'9212.2
2018-Feb-19 03:00N 30°42' W 079°36'17014.2 140 / 141026.410.8 23.019.927.0
2018-Feb-18 15:00N 28°24' W 077°42'16313.6 200 / 71025.410.8 27.021.026.0
2018-Feb-18 03:00N 26°12' W 075°54'16914.1 090 / 51024.410.8 22.018.926.5
2018-Feb-17 15:00N 23°54' W 074°06'15613.0 070 / 141024.410.8 25.018.827.6
2018-Feb-17 03:00N 21°18' W 073°54'17614.6 070 / 181021.410.8 25.020.428.0
2018-Feb-16 15:00N 18°30' W 074°48'18915.7 140 / 101020.310.8 27.021.029.0
2018-Feb-16 03:00N 15°42' W 076°18'17314.5 080 / 281017.3 5.4 26.021.529.0
2018-Feb-15 15:00N 13°12' W 077°48'16814.0 050 / 301015.3 5.4 27.022.628.0
2018-Feb-15 03:00N 10°42' W 079°06'8115.0 050 / 251015.3 5.4 26.023.129.0
2018-Feb-14 21:35N 09°33' W 079°49'214.2
2018-Feb-14 21:28N 09°32' W 079°50'714.5
2018-Feb-14 21:00N 09°27' W 079°55'611.4
2018-Feb-14 20:30N 09°21' W 079°55'3 6.5
2018-Feb-14 20:00N 09°18' W 079°55'2 3.0
2018-Feb-14 19:29N 09°17' W 079°55'0 0.4
2018-Feb-14 19:00N 09°16' W 079°55'0 0.4
2018-Feb-14 18:30N 09°16' W 079°55'0 0.5
2018-Feb-14 18:00N 09°16' W 079°55'0 0.5
2018-Feb-14 17:30N 09°16' W 079°55'  
Track history (hours):
 
Tides and Currents Weather Stations Pressure Air Temp Water Temp Dewpoint Dewpoint Depression Visibility Wind Speed Wind Dir Waves Ship Positions

Maersk Gateshead

Last reported at 2018-Feb-24 17:14 UTC. Time now 2018-Feb-24 18:03 UTC.
Position N 34°12' W 077°57'.

Length 292 m; draft 10.6 m.

Type: Ship (hazmat cat A). MMSI: 219587000.

Date/timePositionNaut miles runAvg speedWind from/ knotsBaromVisibWave heightAir tempDewpointWater temp
2018-Feb-24 17:14N 34°12' W 077°57'0 0.0
2018-Feb-24 16:59N 34°12' W 077°57'0 0.0
2018-Feb-24 14:34N 34°12' W 077°57'0 0.0
2018-Feb-24 12:54N 34°12' W 077°57'1 2.8
2018-Feb-24 12:29N 34°13' W 077°57'1 2.5
2018-Feb-24 11:58N 34°11' W 077°57'182 3.6
2018-Feb-22 09:10N 31°56' W 080°24'2 9.6
2018-Feb-22 09:00N 31°56' W 080°25'5 9.6
2018-Feb-22 08:30N 31°56' W 080°31'5 9.6
2018-Feb-22 08:00N 31°55' W 080°37'5 8.9
2018-Feb-22 07:26N 31°58' W 080°42'511.9
2018-Feb-22 07:01N 31°60' W 080°47'712.7
2018-Feb-22 06:29N 32°02' W 080°55'613.0
2018-Feb-22 06:01N 32°06' W 081°00'4 7.6
2018-Feb-22 05:30N 32°05' W 081°05'3 5.1
2018-Feb-22 05:00N 32°06' W 081°07'2 4.2
2018-Feb-22 04:30N 32°08' W 081°08'0 0.2
2018-Feb-22 03:43N 32°08' W 081°09'0 0.0
2018-Feb-22 03:25N 32°08' W 081°09'0 0.0
2018-Feb-22 02:55N 32°08' W 081°09'0 0.0
2018-Feb-22 02:25N 32°08' W 081°09'0 0.0
2018-Feb-22 01:55N 32°08' W 081°09'0 0.0
2018-Feb-22 01:25N 32°08' W 081°09'0 0.0
2018-Feb-22 00:55N 32°08' W 081°09'0 0.0
2018-Feb-22 00:25N 32°08' W 081°09'0 0.0
2018-Feb-21 23:43N 32°08' W 081°09'0 0.0
2018-Feb-21 23:25N 32°08' W 081°09'0 0.0
2018-Feb-21 22:55N 32°08' W 081°09'0 0.0
2018-Feb-21 22:25N 32°08' W 081°09'0 0.0
2018-Feb-21 21:55N 32°08' W 081°09'0 0.0
2018-Feb-21 21:19N 32°08' W 081°09'0 0.0
2018-Feb-21 20:55N 32°08' W 081°09'0 0.0
2018-Feb-21 20:25N 32°08' W 081°09'0 0.0
2018-Feb-21 19:37N 32°08' W 081°09'0 0.0
2018-Feb-21 19:25N 32°08' W 081°09'0 0.0
2018-Feb-21 18:55N 32°08' W 081°09'0 0.0
2018-Feb-21 18:25N 32°08' W 081°09'0 0.0
2018-Feb-21 17:55N 32°08' W 081°09'0 0.0
2018-Feb-21 17:25N 32°08' W 081°09'0 0.0
2018-Feb-21 16:55N 32°08' W 081°09'0 0.0
2018-Feb-21 16:25N 32°08' W 081°09'0 0.0
2018-Feb-21 15:55N 32°08' W 081°09'0 0.0
2018-Feb-21 15:25N 32°08' W 081°09'0 0.0
2018-Feb-21 14:49N 32°08' W 081°09'0 0.0
2018-Feb-21 14:25N 32°08' W 081°09'0 0.0
2018-Feb-21 13:37N 32°08' W 081°09'0 0.0
2018-Feb-21 13:25N 32°08' W 081°09'0 0.0
2018-Feb-21 12:55N 32°08' W 081°09'0 0.0
2018-Feb-21 12:25N 32°08' W 081°09'0 0.0
2018-Feb-21 11:55N 32°08' W 081°09'0 0.0
2018-Feb-21 11:13N 32°08' W 081°09'0 0.0
2018-Feb-21 10:55N 32°08' W 081°09'0 0.0
2018-Feb-21 10:25N 32°08' W 081°09'0 0.0
2018-Feb-21 09:55N 32°08' W 081°09'0 0.0
2018-Feb-21 09:13N 32°08' W 081°09'0 0.0
2018-Feb-21 08:55N 32°08' W 081°09'0 0.0
2018-Feb-21 08:25N 32°08' W 081°09'0 0.0
2018-Feb-21 07:55N 32°08' W 081°09'0 0.0
2018-Feb-21 07:25N 32°08' W 081°09'0 0.0
2018-Feb-21 06:55N 32°08' W 081°09'0 0.0
2018-Feb-21 06:25N 32°08' W 081°09'0 0.0
2018-Feb-21 05:55N 32°08' W 081°09'0 0.0
2018-Feb-21 05:25N 32°08' W 081°09'0 0.0
2018-Feb-21 04:55N 32°08' W 081°09'0 0.0
2018-Feb-21 04:25N 32°08' W 081°09'0 0.0
2018-Feb-21 03:55N 32°08' W 081°09'0 0.1
2018-Feb-21 03:30N 32°08' W 081°09'1 2.8
2018-Feb-21 03:00N 32°07' W 081°08'4 6.6
2018-Feb-21 02:28N 32°05' W 081°04'4 8.5
2018-Feb-21 02:01N 32°06' W 080°60'611.5
2018-Feb-21 01:30N 32°02' W 080°55'612.1
2018-Feb-21 01:00N 32°01' W 080°48'510.8
2018-Feb-21 00:30N 31°57' W 080°43'4 7.3
2018-Feb-21 00:00N 31°56' W 080°39'2 1.1
2018-Feb-20 21:47N 31°58' W 080°38'0 0.3
2018-Feb-20 21:23N 31°58' W 080°38'0 0.2
2018-Feb-20 20:47N 31°58' W 080°38'0 0.0
2018-Feb-20 20:23N 31°58' W 080°38'0 0.0
2018-Feb-20 19:59N 31°58' W 080°38'0 0.0
2018-Feb-20 19:29N 31°58' W 080°38'0 0.1
2018-Feb-20 18:59N 31°58' W 080°38'0 0.1
2018-Feb-20 18:29N 31°58' W 080°38'0 0.1
2018-Feb-20 17:59N 31°58' W 080°38'0 0.1
2018-Feb-20 17:29N 31°58' W 080°38'0 0.0
2018-Feb-20 14:23N 31°58' W 080°38'0 0.0
2018-Feb-20 11:41N 31°58' W 080°38'0 0.1
2018-Feb-20 11:29N 31°58' W 080°38'0 0.0
2018-Feb-20 10:59N 31°58' W 080°38'0 0.0
2018-Feb-20 10:29N 31°58' W 080°38'0 0.0
2018-Feb-20 09:59N 31°58' W 080°38'0 0.2
2018-Feb-20 09:29N 31°58' W 080°38'0 0.3
2018-Feb-20 08:59N 31°58' W 080°38'0 0.1
2018-Feb-20 08:29N 31°58' W 080°38'0 0.0
2018-Feb-20 07:53N 31°58' W 080°38'0 0.0
2018-Feb-20 07:29N 31°58' W 080°38'0 0.0
2018-Feb-20 06:59N 31°58' W 080°38'0 0.1
2018-Feb-20 06:29N 31°58' W 080°38'0 0.1
2018-Feb-20 05:53N 31°58' W 080°38'0 0.1
2018-Feb-20 05:29N 31°58' W 080°38'0 0.1
2018-Feb-20 04:59N 31°58' W 080°38'0 0.0
2018-Feb-20 02:41N 31°58' W 080°38'0 0.0
2018-Feb-20 02:23N 31°58' W 080°38'0 0.0
2018-Feb-20 01:59N 31°58' W 080°38'0 0.0
2018-Feb-20 01:29N 31°58' W 080°38'0 0.0
2018-Feb-20 00:59N 31°58' W 080°38'0 0.0
2018-Feb-20 00:29N 31°58' W 080°38'0 0.0
2018-Feb-19 23:59N 31°58' W 080°38'0 0.0
2018-Feb-19 23:29N 31°58' W 080°38'0 0.0
2018-Feb-19 22:59N 31°58' W 080°38'0 0.0
2018-Feb-19 22:29N 31°58' W 080°38'0 0.1
2018-Feb-19 20:35N 31°58' W 080°38'0 0.2
2018-Feb-19 20:29N 31°58' W 080°38'0 0.0
2018-Feb-19 19:35N 31°58' W 080°38'0 0.1
2018-Feb-19 19:29N 31°58' W 080°38'0 0.0
2018-Feb-19 18:59N 31°58' W 080°38'0 0.0
2018-Feb-19 18:29N 31°58' W 080°38'0 0.0
2018-Feb-19 12:59N 31°58' W 080°38'0 0.0
2018-Feb-19 12:29N 31°58' W 080°38'0 0.0
2018-Feb-19 11:23N 31°58' W 080°38'0 0.3
2018-Feb-19 10:58N 31°58' W 080°38'1 1.9
2018-Feb-19 10:30N 31°57' W 080°38'9212.2
2018-Feb-19 03:00N 30°42' W 079°36'17014.2 140 / 141026.410.8 23.019.927.0
2018-Feb-18 15:00N 28°24' W 077°42'16313.6 200 / 71025.410.8 27.021.026.0
2018-Feb-18 03:00N 26°12' W 075°54'16914.1 090 / 51024.410.8 22.018.926.5
2018-Feb-17 15:00N 23°54' W 074°06'15613.0 070 / 141024.410.8 25.018.827.6
2018-Feb-17 03:00N 21°18' W 073°54'17614.6 070 / 181021.410.8 25.020.428.0
2018-Feb-16 15:00N 18°30' W 074°48'18915.7 140 / 101020.310.8 27.021.029.0
2018-Feb-16 03:00N 15°42' W 076°18'17314.5 080 / 281017.3 5.4 26.021.529.0
2018-Feb-15 15:00N 13°12' W 077°48'16814.0 050 / 301015.3 5.4 27.022.628.0
2018-Feb-15 03:00N 10°42' W 079°06'8115.0 050 / 251015.3 5.4 26.023.129.0
2018-Feb-14 21:35N 09°33' W 079°49'214.2
2018-Feb-14 21:28N 09°32' W 079°50'714.5
2018-Feb-14 21:00N 09°27' W 079°55'611.4
2018-Feb-14 20:30N 09°21' W 079°55'3 6.5
2018-Feb-14 20:00N 09°18' W 079°55'2 3.0
2018-Feb-14 19:29N 09°17' W 079°55'0 0.4
2018-Feb-14 19:00N 09°16' W 079°55'0 0.4
2018-Feb-14 18:30N 09°16' W 079°55'0 0.5
2018-Feb-14 18:00N 09°16' W 079°55'0 0.5
2018-Feb-14 17:30N 09°16' W 079°55'  

Dump ship's entire track history